createdAt,value
2022-07-29T00:00:57.736Z,10.69
2022-07-29T00:01:58.085Z,10.69
2022-07-29T00:02:58.526Z,10.68
2022-07-29T00:03:58.876Z,10.71
2022-07-29T00:04:59.198Z,10.71
2022-07-29T00:05:59.548Z,10.71
2022-07-29T00:06:59.914Z,10.71
2022-07-29T00:08:00.309Z,10.72
2022-07-29T00:09:00.676Z,10.74
2022-07-29T00:10:00.975Z,10.78
2022-07-29T00:11:01.351Z,10.81
2022-07-29T00:12:01.711Z,10.79
2022-07-29T00:13:02.086Z,10.81
2022-07-29T00:14:02.440Z,10.87
2022-07-29T00:15:02.813Z,10.87
2022-07-29T00:16:04.783Z,10.89
2022-07-29T00:17:03.583Z,10.89
2022-07-29T00:18:03.916Z,10.87
2022-07-29T00:19:04.284Z,10.89
2022-07-29T00:20:05.196Z,10.86
2022-07-29T00:21:05.037Z,10.86
2022-07-29T00:22:05.386Z,10.82
2022-07-29T00:23:05.791Z,10.82
2022-07-29T00:24:06.106Z,10.79
2022-07-29T00:25:06.497Z,10.78
2022-07-29T00:26:06.840Z,10.78
2022-07-29T00:27:07.215Z,10.76
2022-07-29T00:28:07.617Z,10.75
2022-07-29T00:30:08.332Z,10.72
2022-07-29T00:31:08.689Z,10.69
2022-07-29T00:32:09.042Z,10.68
2022-07-29T00:33:09.421Z,10.63
2022-07-29T00:34:09.751Z,10.61
2022-07-29T00:35:10.115Z,10.60
2022-07-29T00:36:10.461Z,10.57
2022-07-29T00:37:10.846Z,10.57
2022-07-29T00:38:11.210Z,10.56
2022-07-29T00:39:11.580Z,10.54
2022-07-29T00:40:11.937Z,10.53
2022-07-29T00:41:12.312Z,10.51
2022-07-29T00:42:12.667Z,10.51
2022-07-29T00:43:13.107Z,10.51
2022-07-29T00:44:13.822Z,10.49
2022-07-29T00:45:13.810Z,10.48
2022-07-29T00:46:14.148Z,10.48
2022-07-29T00:47:14.510Z,10.48
2022-07-29T00:48:14.851Z,10.46
2022-07-29T00:49:15.244Z,10.46
2022-07-29T00:50:15.589Z,10.46
2022-07-29T00:51:15.920Z,10.48
2022-07-29T00:52:17.153Z,10.48
2022-07-29T00:53:16.658Z,10.48
2022-07-29T00:54:17.511Z,10.46
2022-07-29T00:55:17.370Z,10.48
2022-07-29T00:56:17.774Z,10.44
2022-07-29T00:57:18.087Z,10.44
2022-07-29T00:58:18.466Z,10.42
2022-07-29T00:59:18.798Z,10.41
2022-07-29T01:00:19.155Z,10.42
2022-07-29T01:01:19.583Z,10.41
2022-07-29T01:02:20.009Z,10.40
2022-07-29T01:03:20.278Z,10.38
2022-07-29T01:04:20.599Z,10.35
2022-07-29T01:05:20.966Z,10.35
2022-07-29T01:06:21.340Z,10.34
2022-07-29T01:07:21.693Z,10.35
2022-07-29T01:08:22.120Z,10.40
2022-07-29T01:09:35.040Z,10.41
2022-07-29T01:10:22.766Z,10.42
2022-07-29T01:11:23.131Z,10.46
2022-07-29T01:12:23.497Z,10.48
2022-07-29T01:13:23.883Z,10.48
2022-07-29T01:14:24.238Z,10.49
2022-07-29T01:15:24.608Z,10.49
2022-07-29T01:16:24.997Z,10.51
2022-07-29T01:17:25.341Z,10.51
2022-07-29T01:18:25.714Z,10.49
2022-07-29T01:19:26.048Z,10.49
2022-07-29T01:20:31.751Z,10.51
2022-07-29T01:21:26.799Z,10.53
2022-07-29T01:22:27.122Z,10.54
2022-07-29T01:23:27.639Z,10.54
2022-07-29T01:24:27.859Z,10.56
2022-07-29T01:25:28.366Z,10.56
2022-07-29T01:26:28.602Z,10.57
2022-07-29T01:27:28.943Z,10.59
2022-07-29T01:28:29.292Z,10.59
2022-07-29T01:29:29.862Z,10.59
2022-07-29T01:30:29.991Z,10.60
2022-07-29T01:31:30.418Z,10.59
2022-07-29T01:32:30.794Z,10.63
2022-07-29T01:33:31.124Z,10.61
2022-07-29T01:34:31.412Z,10.63
2022-07-29T01:35:31.779Z,10.63
2022-07-29T01:36:32.147Z,10.61
2022-07-29T01:37:32.506Z,10.61
2022-07-29T01:39:47.429Z,10.54
2022-07-29T01:40:48.737Z,10.53
2022-07-29T01:41:49.124Z,10.51
2022-07-29T01:42:49.456Z,10.48
2022-07-29T01:43:49.813Z,10.44
2022-07-29T01:44:50.179Z,10.42
2022-07-29T01:45:50.521Z,10.42
2022-07-29T01:46:50.965Z,10.44
2022-07-29T01:47:51.221Z,10.42
2022-07-29T01:48:51.634Z,10.41
2022-07-29T01:49:51.945Z,10.42
2022-07-29T01:50:52.287Z,10.44
2022-07-29T01:51:52.643Z,10.42
2022-07-29T01:52:52.990Z,10.42
2022-07-29T01:53:53.384Z,10.46
2022-07-29T01:54:53.765Z,10.46
2022-07-29T01:55:54.117Z,10.48
2022-07-29T01:56:54.473Z,10.53
2022-07-29T01:57:54.859Z,10.51
2022-07-29T01:58:55.173Z,10.53
2022-07-29T01:59:55.547Z,10.56
2022-07-29T02:00:55.903Z,10.59
2022-07-29T02:01:56.281Z,10.63
2022-07-29T02:02:56.609Z,10.68
2022-07-29T02:03:56.964Z,10.79
2022-07-29T02:04:57.391Z,10.92
2022-07-29T02:05:57.693Z,11.07
2022-07-29T02:06:58.033Z,11.30
2022-07-29T02:07:58.415Z,11.41
2022-07-29T02:08:58.779Z,11.50
2022-07-29T02:09:59.182Z,11.62
2022-07-29T02:10:59.505Z,11.77
2022-07-29T02:11:59.882Z,11.84
2022-07-29T02:13:00.230Z,11.90
2022-07-29T02:14:00.589Z,11.99
2022-07-29T02:15:00.941Z,12.04
2022-07-29T02:16:01.397Z,12.09
2022-07-29T02:17:01.661Z,12.15
2022-07-29T02:18:02.028Z,12.29
2022-07-29T02:19:02.373Z,12.40
2022-07-29T02:20:02.745Z,12.45
2022-07-29T02:21:03.144Z,12.45
2022-07-29T02:22:03.457Z,12.49
2022-07-29T02:23:03.805Z,12.55
2022-07-29T02:24:04.153Z,12.67
2022-07-29T02:25:04.521Z,12.70
2022-07-29T02:26:04.875Z,12.73
2022-07-29T02:27:05.242Z,12.76
2022-07-29T02:28:05.622Z,12.78
2022-07-29T02:29:05.951Z,12.82
2022-07-29T02:30:06.317Z,12.80
2022-07-29T02:31:06.735Z,12.90
2022-07-29T02:32:07.027Z,12.93
2022-07-29T02:33:07.400Z,12.97
2022-07-29T02:34:07.763Z,13.00
2022-07-29T02:35:08.172Z,13.04
2022-07-29T02:36:08.481Z,13.09
2022-07-29T02:37:08.868Z,13.09
2022-07-29T02:38:09.248Z,13.05
2022-07-29T02:39:10.818Z,13.09
2022-07-29T02:40:09.994Z,13.09
2022-07-29T02:41:10.384Z,13.09
2022-07-29T02:42:10.732Z,13.12
2022-07-29T02:43:11.095Z,13.11
2022-07-29T02:44:11.463Z,13.09
2022-07-29T02:45:11.699Z,13.05
2022-07-29T02:46:28.028Z,13.11
2022-07-29T02:47:12.144Z,13.11
2022-07-29T02:48:12.303Z,13.16
2022-07-29T02:49:12.777Z,13.20
2022-07-29T02:50:13.133Z,13.18
2022-07-29T02:51:13.361Z,13.15
2022-07-29T02:52:13.660Z,13.15
2022-07-29T02:53:13.811Z,13.12
2022-07-29T02:54:14.266Z,13.12
2022-07-29T02:55:14.433Z,13.19
2022-07-29T02:56:14.537Z,13.22
2022-07-29T02:57:14.718Z,13.20
2022-07-29T02:58:14.883Z,13.19
2022-07-29T02:59:15.064Z,13.16
2022-07-29T03:00:15.243Z,13.15
2022-07-29T03:01:20.985Z,13.18
2022-07-29T03:02:15.851Z,13.18
2022-07-29T03:03:15.952Z,13.15
2022-07-29T03:04:16.444Z,13.11
2022-07-29T03:05:16.485Z,13.12
2022-07-29T03:06:28.188Z,13.09
2022-07-29T03:07:16.870Z,13.11
2022-07-29T03:08:17.075Z,13.08
2022-07-29T03:09:17.358Z,13.05
2022-07-29T03:10:17.565Z,13.05
2022-07-29T03:11:17.812Z,13.09
2022-07-29T03:12:17.990Z,13.11
2022-07-29T03:13:18.172Z,13.13
2022-07-29T03:14:18.846Z,13.13
2022-07-29T03:15:18.664Z,13.12
2022-07-29T03:16:18.987Z,13.11
2022-07-29T03:17:19.149Z,13.12
2022-07-29T03:18:19.301Z,13.12
2022-07-29T03:19:19.586Z,13.13
2022-07-29T03:20:19.799Z,13.11
2022-07-29T03:21:20.057Z,13.12
2022-07-29T03:22:20.243Z,13.13
2022-07-29T03:23:20.532Z,13.13
2022-07-29T03:24:20.696Z,13.15
2022-07-29T03:25:20.890Z,13.15
2022-07-29T03:26:21.197Z,13.16
2022-07-29T03:27:21.470Z,13.16
2022-07-29T03:28:21.648Z,13.15
2022-07-29T03:29:21.839Z,13.12
2022-07-29T03:30:22.635Z,13.09
2022-07-29T03:31:22.330Z,13.08
2022-07-29T03:32:25.109Z,13.03
2022-07-29T03:33:22.661Z,13.01
2022-07-29T03:34:23.566Z,13.00
2022-07-29T03:35:23.016Z,12.95
2022-07-29T03:36:23.176Z,12.94
2022-07-29T03:37:23.364Z,12.94
2022-07-29T03:38:23.507Z,12.94
2022-07-29T03:39:23.688Z,12.97
2022-07-29T03:40:23.847Z,12.98
2022-07-29T03:41:24.038Z,13.00
2022-07-29T03:42:24.204Z,13.01
2022-07-29T03:43:24.367Z,13.00
2022-07-29T03:44:24.537Z,12.98
2022-07-29T03:45:24.703Z,13.00
2022-07-29T03:46:24.959Z,13.03
2022-07-29T03:47:43.504Z,13.03
2022-07-29T03:48:25.263Z,13.01
2022-07-29T03:49:25.462Z,13.01
2022-07-29T03:50:25.623Z,13.01
2022-07-29T03:51:33.695Z,13.01
2022-07-29T03:52:25.920Z,13.03
2022-07-29T03:53:26.107Z,13.03
2022-07-29T03:54:26.256Z,13.05
2022-07-29T03:55:26.439Z,13.09
2022-07-29T03:56:26.646Z,13.11
2022-07-29T03:57:26.788Z,13.11
2022-07-29T03:58:27.004Z,13.09
2022-07-29T03:59:27.200Z,13.05
2022-07-29T04:00:27.353Z,13.03
2022-07-29T04:01:27.622Z,13.03
2022-07-29T04:02:30.718Z,13.04
2022-07-29T04:03:27.998Z,13.05
2022-07-29T04:04:28.178Z,13.08
2022-07-29T04:05:28.362Z,13.09
2022-07-29T04:06:28.526Z,13.09
2022-07-29T04:07:28.724Z,13.09
2022-07-29T04:08:28.875Z,13.09
2022-07-29T04:09:29.054Z,13.09
2022-07-29T04:10:31.980Z,13.11
2022-07-29T04:11:29.437Z,13.12
2022-07-29T04:12:29.623Z,13.09
2022-07-29T04:13:29.828Z,13.12
2022-07-29T04:14:30.017Z,13.12
2022-07-29T04:15:31.435Z,13.15
2022-07-29T04:16:30.379Z,13.15
2022-07-29T04:17:30.553Z,13.16
2022-07-29T04:18:30.704Z,13.18
2022-07-29T04:19:30.882Z,13.19
2022-07-29T04:20:31.088Z,13.23
2022-07-29T04:21:31.224Z,13.27
2022-07-29T04:22:31.414Z,13.27
2022-07-29T04:23:31.612Z,13.27
2022-07-29T04:24:31.797Z,13.28
2022-07-29T04:25:32.027Z,13.30
2022-07-29T04:26:32.218Z,13.35
2022-07-29T04:27:32.361Z,13.38
2022-07-29T04:28:32.572Z,13.41
2022-07-29T04:29:32.755Z,13.44
2022-07-29T04:30:32.965Z,13.49
2022-07-29T04:31:33.223Z,13.52
2022-07-29T04:32:33.346Z,13.54
2022-07-29T04:33:33.527Z,13.59
2022-07-29T04:34:33.706Z,13.60
2022-07-29T04:35:38.413Z,13.63
2022-07-29T04:36:34.058Z,13.65
2022-07-29T04:37:34.275Z,13.72
2022-07-29T04:38:34.412Z,13.77
2022-07-29T04:39:34.607Z,13.75
2022-07-29T04:40:34.841Z,13.77
2022-07-29T04:41:34.998Z,13.81
2022-07-29T04:42:35.215Z,13.83
2022-07-29T04:43:36.681Z,13.85
2022-07-29T04:44:37.175Z,13.83
2022-07-29T04:45:35.793Z,13.85
2022-07-29T04:46:36.001Z,13.86
2022-07-29T04:47:36.116Z,13.89
2022-07-29T04:48:36.341Z,13.90
2022-07-29T04:49:36.517Z,13.93
2022-07-29T04:50:36.714Z,13.97
2022-07-29T04:51:36.896Z,13.99
2022-07-29T04:52:37.127Z,14.00
2022-07-29T04:53:37.303Z,14.00
2022-07-29T04:54:37.500Z,14.00
2022-07-29T04:55:38.839Z,14.03
2022-07-29T04:56:37.837Z,14.04
2022-07-29T04:57:38.043Z,14.04
2022-07-29T04:58:38.187Z,14.03
2022-07-29T04:59:38.392Z,14.00
2022-07-29T05:00:38.602Z,14.00
2022-07-29T05:01:38.825Z,14.05
2022-07-29T05:02:39.058Z,14.07
2022-07-29T05:03:39.141Z,14.10
2022-07-29T05:04:39.402Z,14.08
2022-07-29T05:05:39.518Z,14.12
2022-07-29T05:06:39.676Z,14.15
2022-07-29T05:07:39.838Z,14.20
2022-07-29T05:08:40.053Z,14.22
2022-07-29T05:09:40.237Z,14.17
2022-07-29T05:10:40.478Z,14.15
2022-07-29T05:11:40.618Z,14.18
2022-07-29T05:12:40.743Z,14.18
2022-07-29T05:13:45.203Z,14.23
2022-07-29T05:14:41.137Z,14.20
2022-07-29T05:15:41.371Z,14.25
2022-07-29T05:16:41.508Z,14.44
2022-07-29T05:17:41.696Z,14.73
2022-07-29T05:18:41.896Z,14.82
2022-07-29T05:19:42.086Z,14.78
2022-07-29T05:20:42.295Z,14.85
2022-07-29T05:21:42.483Z,14.89
2022-07-29T05:22:42.645Z,14.92
2022-07-29T05:23:42.851Z,14.85
2022-07-29T05:24:43.016Z,14.85
2022-07-29T05:25:44.823Z,14.79
2022-07-29T05:26:43.419Z,14.72
2022-07-29T05:27:43.740Z,14.72
2022-07-29T05:28:43.795Z,14.81
2022-07-29T05:29:45.731Z,14.92
2022-07-29T05:30:44.264Z,15.06
2022-07-29T05:31:44.391Z,15.15
2022-07-29T05:32:44.581Z,15.15
2022-07-29T05:33:44.770Z,15.21
2022-07-29T05:34:51.409Z,15.22
2022-07-29T05:35:45.210Z,15.19
2022-07-29T05:36:45.323Z,15.15
2022-07-29T05:37:45.514Z,15.18
2022-07-29T05:38:45.709Z,15.22
2022-07-29T05:39:49.126Z,15.09
2022-07-29T05:40:46.097Z,15.15
2022-07-29T05:41:51.542Z,15.25
2022-07-29T05:42:46.495Z,15.33
2022-07-29T05:43:46.614Z,15.29
2022-07-29T05:44:46.800Z,15.24
2022-07-29T05:45:49.251Z,15.25
2022-07-29T05:46:47.235Z,15.09
2022-07-29T05:47:47.363Z,15.10
2022-07-29T05:48:47.600Z,15.10
2022-07-29T05:49:47.780Z,15.10
2022-07-29T05:50:48.044Z,15.15
2022-07-29T05:51:48.151Z,15.15
2022-07-29T05:52:48.361Z,15.18
2022-07-29T05:53:48.575Z,15.33
2022-07-29T05:54:48.706Z,15.28
2022-07-29T05:55:48.905Z,15.33
2022-07-29T05:56:49.106Z,15.44
2022-07-29T05:57:49.297Z,15.52
2022-07-29T05:58:49.494Z,15.49
2022-07-29T05:59:49.678Z,15.51
2022-07-29T06:00:49.906Z,15.55
2022-07-29T06:01:50.143Z,15.64
2022-07-29T06:02:50.267Z,15.70
2022-07-29T06:03:50.484Z,15.70
2022-07-29T06:04:50.735Z,15.84
2022-07-29T06:05:50.871Z,15.97
2022-07-29T06:06:51.017Z,15.97
2022-07-29T06:07:51.642Z,15.84
2022-07-29T06:08:51.421Z,15.82
2022-07-29T06:09:51.651Z,15.83
2022-07-29T06:10:51.836Z,15.91
2022-07-29T06:11:52.008Z,16.02
2022-07-29T06:12:52.191Z,16.00
2022-07-29T06:13:52.389Z,16.01
2022-07-29T06:14:54.288Z,15.97
2022-07-29T06:15:52.803Z,16.05
2022-07-29T06:16:52.999Z,16.00
2022-07-29T06:17:59.111Z,16.04
2022-07-29T06:18:53.326Z,16.12
2022-07-29T06:19:53.536Z,16.26
2022-07-29T06:20:53.712Z,16.17
2022-07-29T06:21:53.900Z,16.31
2022-07-29T06:22:54.053Z,16.38
2022-07-29T06:23:54.241Z,16.42
2022-07-29T06:24:54.459Z,16.31
2022-07-29T06:25:54.639Z,16.46
2022-07-29T06:26:54.819Z,16.39
2022-07-29T06:27:55.002Z,16.33
2022-07-29T06:28:55.192Z,16.53
2022-07-29T06:29:55.382Z,16.71
2022-07-29T06:30:55.662Z,16.65
2022-07-29T06:31:55.765Z,16.53
2022-07-29T06:32:55.936Z,16.56
2022-07-29T06:33:56.145Z,16.68
2022-07-29T06:35:07.004Z,16.71
2022-07-29T06:35:56.509Z,17.04
2022-07-29T06:36:56.660Z,17.11
2022-07-29T06:37:58.052Z,17.22
2022-07-29T06:38:57.028Z,17.34
2022-07-29T06:39:59.580Z,17.31
2022-07-29T06:40:57.427Z,17.26
2022-07-29T06:41:57.621Z,17.27
2022-07-29T06:42:57.807Z,17.09
2022-07-29T06:43:58.003Z,17.05
2022-07-29T06:44:58.202Z,17.14
2022-07-29T06:45:58.530Z,17.26
2022-07-29T06:46:58.574Z,17.44
2022-07-29T06:47:58.761Z,17.20
2022-07-29T06:48:58.985Z,17.27
2022-07-29T06:49:59.152Z,17.12
2022-07-29T06:50:59.366Z,17.30
2022-07-29T06:51:59.553Z,17.27
2022-07-29T06:52:59.724Z,17.41
2022-07-29T06:54:03.422Z,17.48
2022-07-29T06:55:00.088Z,17.71
2022-07-29T06:56:00.317Z,17.64
2022-07-29T06:57:00.551Z,17.64
2022-07-29T06:58:00.676Z,17.63
2022-07-29T06:59:01.503Z,17.57
2022-07-29T07:00:01.057Z,17.65
2022-07-29T07:01:01.308Z,17.65
2022-07-29T07:02:01.473Z,17.57
2022-07-29T07:03:01.630Z,17.42
2022-07-29T07:04:01.813Z,17.44
2022-07-29T07:05:01.952Z,17.42
2022-07-29T07:06:02.163Z,17.31
2022-07-29T07:07:02.413Z,17.42
2022-07-29T07:08:02.558Z,17.45
2022-07-29T07:09:02.751Z,17.56
2022-07-29T07:10:02.961Z,17.65
2022-07-29T07:11:03.156Z,17.72
2022-07-29T07:12:03.316Z,17.74
2022-07-29T07:13:03.468Z,17.70
2022-07-29T07:14:04.375Z,17.67
2022-07-29T07:15:03.837Z,17.76
2022-07-29T07:16:04.074Z,18.01
2022-07-29T07:17:04.285Z,18.20
2022-07-29T07:18:04.441Z,18.31
2022-07-29T07:19:04.636Z,18.37
2022-07-29T07:20:04.831Z,18.22
2022-07-29T07:21:05.108Z,18.25
2022-07-29T07:22:05.219Z,18.16
2022-07-29T07:23:05.422Z,18.16
2022-07-29T07:24:05.645Z,18.16
2022-07-29T07:25:05.814Z,18.19
2022-07-29T07:26:05.995Z,18.15
2022-07-29T07:27:06.188Z,18.33
2022-07-29T07:28:06.462Z,18.49
2022-07-29T07:29:06.675Z,18.43
2022-07-29T07:30:06.750Z,18.55
2022-07-29T07:31:06.933Z,18.38
2022-07-29T07:32:07.242Z,18.40
2022-07-29T07:33:07.330Z,18.68
2022-07-29T07:34:07.467Z,18.58
2022-07-29T07:35:07.656Z,18.50
2022-07-29T07:36:07.868Z,18.66
2022-07-29T07:37:08.031Z,18.38
2022-07-29T07:38:08.208Z,18.41
2022-07-29T07:39:14.427Z,18.53
2022-07-29T07:40:08.588Z,18.80
2022-07-29T07:41:08.836Z,18.90
2022-07-29T07:42:08.943Z,19.04
2022-07-29T07:43:09.127Z,18.92
2022-07-29T07:44:14.167Z,18.62
2022-07-29T07:45:14.102Z,18.59
2022-07-29T07:46:09.770Z,18.52
2022-07-29T07:47:12.315Z,18.35
2022-07-29T07:48:10.095Z,18.22
2022-07-29T07:49:10.435Z,18.37
2022-07-29T07:50:13.816Z,18.43
2022-07-29T07:51:10.688Z,18.55
2022-07-29T07:52:10.849Z,18.66
2022-07-29T07:53:11.109Z,18.92
2022-07-29T07:54:11.214Z,19.15
2022-07-29T07:55:11.454Z,19.14
2022-07-29T07:56:12.751Z,19.08
2022-07-29T07:57:11.817Z,19.16
2022-07-29T07:58:12.015Z,19.26
2022-07-29T07:59:12.235Z,18.96
2022-07-29T08:00:12.428Z,18.77
2022-07-29T08:01:12.662Z,18.56
2022-07-29T08:02:12.932Z,18.41
2022-07-29T08:03:16.616Z,18.56
2022-07-29T08:04:13.420Z,18.74
2022-07-29T08:05:13.363Z,18.84
2022-07-29T08:06:13.575Z,18.73
2022-07-29T08:07:13.733Z,18.78
2022-07-29T08:08:13.929Z,18.81
2022-07-29T08:09:28.829Z,18.75
2022-07-29T08:10:14.351Z,18.78
2022-07-29T08:11:14.552Z,18.68
2022-07-29T08:12:14.709Z,18.95
2022-07-29T08:13:14.904Z,18.99
2022-07-29T08:14:15.458Z,19.11
2022-07-29T08:15:15.258Z,19.47
2022-07-29T08:16:15.535Z,19.48
2022-07-29T08:17:15.731Z,19.29
2022-07-29T08:18:15.862Z,19.22
2022-07-29T08:19:16.107Z,19.21
2022-07-29T08:20:16.281Z,19.22
2022-07-29T08:21:16.571Z,19.08
2022-07-29T08:22:16.718Z,19.37
2022-07-29T08:23:16.901Z,19.49
2022-07-29T08:24:17.088Z,19.55
2022-07-29T08:25:17.306Z,19.81
2022-07-29T08:26:17.492Z,20.11
2022-07-29T08:27:41.854Z,20.22
2022-07-29T08:28:17.873Z,20.24
2022-07-29T08:29:20.037Z,20.16
2022-07-29T08:30:18.276Z,20.13
2022-07-29T08:31:18.546Z,20.48
2022-07-29T08:32:36.887Z,20.36
2022-07-29T08:33:18.900Z,20.47
2022-07-29T08:34:19.123Z,20.55
2022-07-29T08:35:19.283Z,20.75
2022-07-29T08:36:19.478Z,21.07
2022-07-29T08:37:19.686Z,21.40
2022-07-29T08:38:19.846Z,21.02
2022-07-29T08:39:20.051Z,21.15
2022-07-29T08:40:20.310Z,21.22
2022-07-29T08:41:20.470Z,20.90
2022-07-29T08:42:20.661Z,21.05
2022-07-29T08:43:20.875Z,20.88
2022-07-29T08:44:22.396Z,20.65
2022-07-29T08:45:21.295Z,20.63
2022-07-29T08:46:21.640Z,20.58
2022-07-29T08:47:21.676Z,20.77
2022-07-29T08:48:21.882Z,20.72
2022-07-29T08:49:22.192Z,20.93
2022-07-29T08:50:22.282Z,20.93
2022-07-29T08:51:22.550Z,20.97
2022-07-29T08:52:22.708Z,21.05
2022-07-29T08:53:22.920Z,21.06
2022-07-29T08:54:23.115Z,21.15
2022-07-29T08:55:23.309Z,21.27
2022-07-29T08:56:23.528Z,21.42
2022-07-29T08:57:23.726Z,21.58
2022-07-29T08:58:24.993Z,21.48
2022-07-29T08:59:24.075Z,21.50
2022-07-29T09:00:24.264Z,21.69
2022-07-29T09:01:36.077Z,21.70
2022-07-29T09:02:24.654Z,21.92
2022-07-29T09:03:24.937Z,22.13
2022-07-29T09:04:25.040Z,22.17
2022-07-29T09:05:25.221Z,22.02
2022-07-29T09:06:25.466Z,22.06
2022-07-29T09:07:25.598Z,21.48
2022-07-29T09:08:25.816Z,21.06
2022-07-29T09:09:25.970Z,21.03
2022-07-29T09:10:26.177Z,20.92
2022-07-29T09:11:26.423Z,20.87
2022-07-29T09:12:29.314Z,20.80
2022-07-29T09:13:26.798Z,20.85
2022-07-29T09:14:26.932Z,20.85
2022-07-29T09:15:27.121Z,20.81
2022-07-29T09:16:51.884Z,20.77
2022-07-29T09:17:27.561Z,20.77
2022-07-29T09:18:30.738Z,20.80
2022-07-29T09:19:27.867Z,20.82
2022-07-29T09:20:28.066Z,20.82
2022-07-29T09:21:28.290Z,20.88
2022-07-29T09:22:28.442Z,20.87
2022-07-29T09:23:28.644Z,20.87
2022-07-29T09:24:28.850Z,20.90
2022-07-29T09:25:29.049Z,21.06
2022-07-29T09:26:29.269Z,21.24
2022-07-29T09:27:29.441Z,21.22
2022-07-29T09:28:29.602Z,21.09
2022-07-29T09:29:33.276Z,21.07
2022-07-29T09:30:31.898Z,21.09
2022-07-29T09:31:30.267Z,21.24
2022-07-29T09:32:30.395Z,21.40
2022-07-29T09:33:30.571Z,21.45
2022-07-29T09:34:30.841Z,21.43
2022-07-29T09:35:30.990Z,21.62
2022-07-29T09:36:31.198Z,21.42
2022-07-29T09:37:31.373Z,21.61
2022-07-29T09:38:31.585Z,21.40
2022-07-29T09:39:31.822Z,21.36
2022-07-29T09:40:31.997Z,21.45
2022-07-29T09:41:32.220Z,21.60
2022-07-29T09:42:32.388Z,21.70
2022-07-29T09:43:32.605Z,21.66
2022-07-29T09:44:32.817Z,21.75
2022-07-29T09:45:32.992Z,21.48
2022-07-29T09:46:33.247Z,21.58
2022-07-29T09:47:33.384Z,21.61
2022-07-29T09:48:33.564Z,21.73
2022-07-29T09:49:33.752Z,21.83
2022-07-29T09:50:33.938Z,21.72
2022-07-29T09:51:38.577Z,21.70
2022-07-29T09:52:34.320Z,21.76
2022-07-29T09:53:34.508Z,21.75
2022-07-29T09:54:34.701Z,21.98
2022-07-29T09:55:34.891Z,22.18
2022-07-29T09:56:35.091Z,22.38
2022-07-29T09:57:35.281Z,22.54
2022-07-29T09:58:35.466Z,22.65
2022-07-29T09:59:35.658Z,23.18
2022-07-29T10:00:35.882Z,23.51
2022-07-29T10:01:36.069Z,23.91
2022-07-29T10:02:36.327Z,23.74
2022-07-29T10:03:36.515Z,23.44
2022-07-29T10:04:36.659Z,23.36
2022-07-29T10:05:37.111Z,23.28
2022-07-29T10:06:37.054Z,23.20
2022-07-29T10:07:37.255Z,22.99
2022-07-29T10:08:37.449Z,22.81
2022-07-29T10:09:37.635Z,22.73
2022-07-29T10:10:37.842Z,22.76
2022-07-29T10:11:49.602Z,22.76
2022-07-29T10:12:38.274Z,22.83
2022-07-29T10:13:38.472Z,23.21
2022-07-29T10:14:38.688Z,23.55
2022-07-29T10:15:39.010Z,23.78
2022-07-29T10:16:39.134Z,24.01
2022-07-29T10:17:41.688Z,23.59
2022-07-29T10:18:39.491Z,23.25
2022-07-29T10:19:39.672Z,22.84
2022-07-29T10:20:39.880Z,23.03
2022-07-29T10:21:40.091Z,23.00
2022-07-29T10:22:55.700Z,22.91
2022-07-29T10:23:47.130Z,23.20
2022-07-29T10:24:40.788Z,22.90
2022-07-29T10:25:45.997Z,22.90
2022-07-29T10:26:41.157Z,23.10
2022-07-29T10:27:41.338Z,23.36
2022-07-29T10:28:41.596Z,23.99
2022-07-29T10:29:41.750Z,24.16
2022-07-29T10:30:41.944Z,23.51
2022-07-29T10:31:42.255Z,23.44
2022-07-29T10:32:42.354Z,23.18
2022-07-29T10:33:42.549Z,23.31
2022-07-29T10:34:42.759Z,23.61
2022-07-29T10:35:42.981Z,24.16
2022-07-29T10:36:43.307Z,24.60
2022-07-29T10:37:43.337Z,24.85
2022-07-29T10:38:45.814Z,24.89
2022-07-29T10:39:44.548Z,24.60
2022-07-29T10:40:43.921Z,24.96
2022-07-29T10:41:44.795Z,25.72
2022-07-29T10:42:44.313Z,25.88
2022-07-29T10:43:44.496Z,25.38
2022-07-29T10:44:44.684Z,25.44
2022-07-29T10:45:44.868Z,25.16
2022-07-29T10:46:45.135Z,25.22
2022-07-29T10:47:45.242Z,25.72
2022-07-29T10:48:45.484Z,25.62
2022-07-29T10:49:45.638Z,26.26
2022-07-29T10:50:45.860Z,26.62
2022-07-29T10:51:46.103Z,25.96
2022-07-29T10:52:46.243Z,25.99
2022-07-29T10:53:46.469Z,25.06
2022-07-29T10:54:46.672Z,25.10
2022-07-29T10:55:47.763Z,24.77
2022-07-29T10:56:47.070Z,24.81
2022-07-29T10:57:53.528Z,24.77
2022-07-29T10:58:52.667Z,24.76
2022-07-29T10:59:47.724Z,24.70
2022-07-29T11:00:47.937Z,24.91
2022-07-29T11:01:50.312Z,25.11
2022-07-29T11:02:50.033Z,24.60
2022-07-29T11:03:49.178Z,24.50
2022-07-29T11:04:48.736Z,24.32
2022-07-29T11:05:48.940Z,24.24
2022-07-29T11:06:49.164Z,23.74
2022-07-29T11:07:49.375Z,23.86
2022-07-29T11:08:49.586Z,24.14
2022-07-29T11:09:49.784Z,24.43
2022-07-29T11:10:49.996Z,24.85
2022-07-29T12:07:11.061Z,24.93
2022-07-29T12:07:20.382Z,26.18
2022-07-29T12:08:19.958Z,26.10
2022-07-29T12:09:20.166Z,26.70
2022-07-29T12:10:30.503Z,26.95
2022-07-29T12:11:21.828Z,27.26
2022-07-29T12:12:20.755Z,26.81
2022-07-29T12:13:20.982Z,26.81
2022-07-29T12:14:21.152Z,26.40
2022-07-29T12:15:21.364Z,26.88
2022-07-29T12:16:25.437Z,26.96
2022-07-29T12:17:21.771Z,26.58
2022-07-29T12:18:24.159Z,26.15
2022-07-29T12:19:22.153Z,26.70
2022-07-29T12:20:22.371Z,27.18
2022-07-29T12:21:25.740Z,27.05
2022-07-29T12:22:22.769Z,27.29
2022-07-29T12:23:23.019Z,26.80
2022-07-29T12:24:23.196Z,26.40
2022-07-29T12:25:38.781Z,26.03
2022-07-29T12:26:25.786Z,26.40
2022-07-29T12:27:29.424Z,26.80
2022-07-29T12:28:27.566Z,27.37
2022-07-29T12:29:33.956Z,27.14
2022-07-29T12:30:24.404Z,26.58
2022-07-29T12:31:42.975Z,26.74
2022-07-29T12:32:24.847Z,27.05
2022-07-29T12:33:24.994Z,27.33
2022-07-29T12:34:25.185Z,27.63
2022-07-29T12:35:25.391Z,27.59
2022-07-29T12:36:25.607Z,27.36
2022-07-29T12:37:41.407Z,26.88
2022-07-29T12:38:26.091Z,26.89
2022-07-29T12:39:26.242Z,27.20
2022-07-29T12:40:26.432Z,27.39
2022-07-29T12:41:26.743Z,27.08
2022-07-29T12:42:26.860Z,26.56
2022-07-29T12:43:27.054Z,26.00
2022-07-29T12:44:27.241Z,26.44
2022-07-29T12:45:27.449Z,27.17
2022-07-29T12:46:27.706Z,26.78
2022-07-29T12:47:27.856Z,27.35
2022-07-29T12:48:28.066Z,27.52
2022-07-29T12:49:28.282Z,27.70
2022-07-29T12:50:28.473Z,27.67
2022-07-29T12:51:28.707Z,28.08
2022-07-29T12:52:28.863Z,27.90
2022-07-29T12:53:29.074Z,27.92
2022-07-29T12:54:29.298Z,27.42
2022-07-29T12:55:29.484Z,27.11
2022-07-29T12:56:42.355Z,26.99
2022-07-29T12:57:29.921Z,27.40
2022-07-29T12:58:30.105Z,27.35
2022-07-29T12:59:30.298Z,27.20
2022-07-29T13:00:30.547Z,27.36
2022-07-29T13:01:30.731Z,27.92
2022-07-29T13:02:31.019Z,28.32
2022-07-29T13:03:35.707Z,27.89
2022-07-29T13:04:31.335Z,27.42
2022-07-29T13:05:31.533Z,27.55
2022-07-29T13:06:31.749Z,27.07
2022-07-29T13:07:54.121Z,26.75
2022-07-29T13:08:32.173Z,26.48
2022-07-29T13:09:32.360Z,26.31
2022-07-29T13:10:32.559Z,26.53
2022-07-29T13:11:34.100Z,26.48
2022-07-29T13:12:33.047Z,26.88
2022-07-29T13:13:33.175Z,26.85
2022-07-29T13:14:33.369Z,26.18
2022-07-29T13:15:33.559Z,26.10
2022-07-29T13:16:33.911Z,26.10
2022-07-29T13:17:33.964Z,25.98
2022-07-29T13:18:34.173Z,25.70
2022-07-29T13:19:34.365Z,25.93
2022-07-29T13:20:34.580Z,26.34
2022-07-29T13:21:34.799Z,26.66
2022-07-29T13:22:34.976Z,26.38
2022-07-29T13:23:38.379Z,26.03
2022-07-29T13:24:35.369Z,25.96
2022-07-29T13:25:35.571Z,25.91
2022-07-29T13:26:35.806Z,25.93
2022-07-29T13:27:35.976Z,25.88
2022-07-29T13:28:36.197Z,25.83
2022-07-29T13:29:36.409Z,25.83
2022-07-29T13:30:36.640Z,25.96
2022-07-29T13:31:36.834Z,25.80
2022-07-29T13:32:37.048Z,25.84
2022-07-29T13:33:37.204Z,25.90
2022-07-29T13:34:37.423Z,25.91
2022-07-29T13:35:40.130Z,25.88
2022-07-29T13:36:41.576Z,26.19
2022-07-29T13:37:38.048Z,26.47
2022-07-29T13:38:38.213Z,26.26
2022-07-29T13:39:44.499Z,26.34
2022-07-29T13:40:38.614Z,26.34
2022-07-29T13:41:38.826Z,26.52
2022-07-29T13:42:38.987Z,26.68
2022-07-29T13:43:39.179Z,26.29
2022-07-29T13:44:39.393Z,25.85
2022-07-29T13:45:39.632Z,25.85
2022-07-29T13:46:40.071Z,26.13
2022-07-29T13:47:42.500Z,26.51
2022-07-29T13:48:40.189Z,26.83
2022-07-29T13:49:40.417Z,27.05
2022-07-29T13:50:40.605Z,27.83
2022-07-29T13:51:40.818Z,28.48
2022-07-29T13:52:41.013Z,29.27